Latest Weather Observations for Warruwi

IDD60801

Issued at 10:31 pm CST Monday 6 July 2015 (issued every 30 minutes, with the page automatically refreshed every 10 minutes)

About weather observations | Map of weather stations | Latest weather observations for NT | Other Formats
Station Details ID: 014401 Name: WARRUWI AIRPORT Lat: -11.65 Lon: 133.38 Height: 19.2 m
Data from the previous 72 hours. | See also: Recent months at Warruwi
Date/Time
CST
Temp
°C
App
Temp
°C
Dew
Point
Rel
Hum
%
Delta-T
°C
Wind Press
QNH
hPa
Press
MSL
hPa
Rain
since 9 am
mm
Dir
 
Spd
km/h
Gust
km/h
Spd
kts
Gust
kts
06/10:30pm 25.3 27.4 22.4 84 1.9 E 15 22 8 12 1013.3 1013.2 0.0
06/10:00pm 25.2 27.4 21.9 82 2.2 E 13 19 7 10 1013.4 1013.3 0.0
06/09:30pm 25.1 27.6 21.8 82 2.2 E 11 19 6 10 1013.3 1013.2 0.0
06/09:00pm 25.2 27.7 21.7 81 2.3 E 11 19 6 10 1013.1 1013.0 0.0
06/08:30pm 25.4 27.7 21.3 78 2.7 E 11 19 6 10 1013.0 1012.9 0.0
06/08:00pm 25.6 28.1 21.1 76 3.0 E 9 17 5 9 1012.8 1012.7 0.0
06/07:30pm 25.5 27.7 21.2 77 2.8 E 11 15 6 8 1012.4 1012.3 0.0
06/07:00pm 25.6 27.5 20.6 74 3.3 E 11 19 6 10 1012.1 1012.0 0.0
06/06:30pm 25.5 26.7 20.7 75 3.2 E 15 20 8 11 1011.9 1011.8 0.0
06/06:00pm 25.7 26.8 20.5 73 3.4 E 15 22 8 12 1011.7 1011.6 0.0
06/05:30pm 25.8 26.0 20.1 71 3.7 E 19 26 10 14 1011.5 1011.4 0.0
06/05:00pm 26.1 27.1 20.2 70 3.8 E 15 20 8 11 1011.6 1011.5 0.0
06/04:30pm 26.8 27.6 19.9 66 4.5 E 15 22 8 12 1011.6 1011.5 0.0
06/04:00pm 27.0 27.2 20.1 66 4.5 E 19 26 10 14 1011.6 1011.5 0.0
06/03:30pm 27.2 28.2 21.0 69 4.1 E 17 22 9 12 1011.8 1011.7 0.0
06/03:00pm 27.6 28.2 20.2 64 4.9 ESE 17 22 9 12 1011.8 1011.7 0.0
06/02:30pm 27.1 27.4 20.4 66 4.4 E 19 24 10 13 1012.2 1012.1 0.0
06/02:00pm 26.8 27.2 20.9 70 3.9 E 20 26 11 14 1012.5 1012.4 0.0
06/01:30pm 27.2 28.7 21.2 69 4.0 E 15 22 8 12 1013.0 1012.9 0.0
06/01:00pm 26.7 26.9 20.5 69 4.1 E 20 30 11 16 1013.4 1013.3 0.0
06/12:30pm 26.8 26.5 20.4 68 4.2 E 22 33 12 18 1013.9 1013.8 0.0
06/12:00pm 26.4 26.0 19.3 65 4.6 E 20 32 11 17 1014.0 1013.9 0.0
06/11:30am 26.9 26.3 19.8 65 4.6 ESE 22 32 12 17 1014.3 1014.2 0.0
06/11:00am 26.8 25.4 19.7 65 4.6 E 26 35 14 19 1014.5 1014.4 0.0
06/10:30am 26.7 26.0 19.6 65 4.6 ESE 22 32 12 17 1014.6 1014.5 0.0
06/10:00am 25.5 24.5 18.9 67 4.2 ESE 22 32 12 17 1014.8 1014.7 0.0
06/09:30am 25.0 24.4 18.9 69 3.9 ESE 20 28 11 15 1014.7 1014.6 0.0
06/09:00am 24.6 24.2 19.4 73 3.3 ESE 20 26 11 14 1014.8 1014.7 0.0
06/08:30am 24.0 24.6 19.5 76 2.9 ESE 15 22 8 12 1014.7 1014.6 0.0
06/08:00am 23.3 24.3 19.5 79 2.4 SE 13 20 7 11 1014.5 1014.4 0.0
06/07:30am 22.5 23.5 19.5 83 1.9 ESE 13 19 7 10 1014.3 1014.2 0.0
06/07:00am 22.3 22.8 19.3 83 1.9 ESE 15 22 8 12 1014.0 1013.9 0.0
06/06:30am 22.5 22.9 19.1 81 2.2 ESE 15 20 8 11 1014.0 1013.9 0.0
06/06:00am 22.1 22.7 18.7 81 2.1 ESE 13 20 7 11 1013.7 1013.6 0.0
06/05:30am 22.2 22.7 18.4 79 2.4 SE 13 22 7 12 1013.6 1013.5 0.0
06/05:00am 22.4 23.0 18.6 79 2.4 SE 13 17 7 9 1013.5 1013.4 0.0
06/04:30am 22.7 22.9 18.5 77 2.6 ESE 15 22 8 12 1013.4 1013.3 0.0
06/04:00am 22.7 23.3 18.7 78 2.5 ESE 13 20 7 11 1013.4 1013.3 0.0
06/03:30am 23.0 23.2 18.5 76 2.8 ESE 15 20 8 11 1013.3 1013.2 0.0
06/03:00am 23.2 22.9 18.3 74 3.1 ESE 17 26 9 14 1013.5 1013.4 0.0
06/02:30am 23.3 23.4 18.4 74 3.1 ESE 15 22 8 12 1013.5 1013.4 0.0
06/02:00am 23.6 23.9 18.7 74 3.1 ESE 15 22 8 12 1013.5 1013.4 0.0
06/01:30am 23.8 24.5 18.9 74 3.1 SE 13 22 7 12 1013.7 1013.6 0.0
06/01:00am 24.1 25.0 19.2 74 3.1 ESE 13 20 7 11 1013.6 1013.5 0.0
06/12:30am 24.4 25.1 19.7 75 3.0 ESE 15 20 8 11 1013.6 1013.5 0.0
06/12:00am 24.6 25.5 20.1 76 2.9 ESE 15 24 8 13 1013.7 1013.6 0.0
 
Date/Time
CST
Temp
°C
App
Temp
°C
Dew
Point
Rel
Hum
%
Delta-T
°C
Wind Press
QNH
hPa
Press
MSL
hPa
Rain
since 9 am
mm
Dir
 
Spd
km/h
Gust
km/h
Spd
kts
Gust
kts
05/11:30pm 24.8 25.2 19.8 74 3.2 ESE 17 26 9 14 1014.0 1013.9 0.0
05/11:00pm 25.1 25.1 20.1 74 3.2 E 20 30 11 16 1013.8 1013.7 0.0
05/10:30pm 25.2 25.7 20.9 77 2.8 E 19 30 10 16 1013.9 1013.8 0.0
05/10:00pm 25.1 26.1 21.0 78 2.7 E 17 26 9 14 1014.2 1014.1 0.0
05/09:30pm 25.2 25.7 20.9 77 2.8 E 19 28 10 15 1014.1 1014.0 0.0
05/09:00pm 25.1 26.5 21.0 78 2.7 E 15 20 8 11 1013.9 1013.8 0.0
05/08:30pm 25.1 26.5 21.0 78 2.7 E 15 28 8 15 1013.7 1013.6 0.0
05/08:00pm 25.1 26.4 20.8 77 2.8 E 15 24 8 13 1013.4 1013.3 0.0
05/07:30pm 25.2 26.7 20.5 75 3.1 E 13 20 7 11 1013.1 1013.0 0.0
05/07:00pm 25.3 26.6 19.4 70 3.8 E 11 19 6 10 1013.0 1012.9 0.0
05/06:30pm 25.3 27.2 19.0 68 4.0 ENE 7 13 4 7 1012.8 1012.7 0.0
05/06:00pm 25.8 26.8 18.7 65 4.5 E 11 19 6 10 1012.6 1012.5 0.0
05/05:30pm 26.5 27.1 18.6 62 5.0 ENE 13 20 7 11 1012.3 1012.2 0.0
05/05:00pm 26.8 27.0 18.6 60 5.2 E 15 24 8 13 1012.2 1012.1 0.0
05/04:30pm 26.7 26.6 18.8 62 5.1 E 17 24 9 13 1012.1 1012.0 0.0
05/04:00pm 26.8 26.6 18.6 60 5.2 E 17 24 9 13 1012.3 1012.2 0.0
05/03:30pm 26.9 26.1 17.9 57 5.7 E 19 26 10 14 1012.3 1012.2 0.0
05/03:00pm 26.9 26.3 18.5 60 5.4 E 19 26 10 14 1012.7 1012.6 0.0
05/02:30pm 27.1 26.3 18.4 59 5.5 E 20 30 11 16 1013.0 1012.9 0.0
05/02:00pm 27.6 27.1 18.6 58 5.8 E 19 26 10 14 1013.1 1013.0 0.0
05/01:30pm 26.9 26.2 18.7 60 5.2 E 20 30 11 16 1013.5 1013.4 0.0
05/01:00pm 27.0 26.6 18.8 60 5.3 E 19 28 10 15 1013.8 1013.7 0.0
05/12:30pm 27.3 26.6 18.6 59 5.6 ESE 20 28 11 15 1014.0 1013.9 0.0
05/12:00pm 27.4 27.0 18.9 59 5.5 ESE 19 24 10 13 1014.3 1014.2 0.0
05/11:30am 27.2 26.8 19.3 62 5.1 ESE 20 28 11 15 1014.7 1014.6 0.0
05/11:00am 26.1 25.6 19.0 65 4.6 ESE 20 28 11 15 1015.0 1014.9 0.0
05/10:30am 25.6 25.2 19.0 67 4.2 SE 19 26 10 14 1015.2 1015.1 0.0
05/10:00am 25.1 24.6 19.2 70 3.8 ESE 20 26 11 14 1015.5 1015.4 0.0
05/09:30am 24.6 24.4 18.5 69 3.9 ESE 17 24 9 13 1015.6 1015.5 0.0
05/09:00am 24.3 23.9 18.9 72 3.4 ESE 19 26 10 14 1015.5 1015.4 0.0
05/08:30am 23.6 23.9 18.7 74 3.1 SE 15 20 8 11 1015.4 1015.3 0.0
05/08:00am 23.3 24.1 19.0 77 2.7 ESE 13 19 7 10 1015.1 1015.0 0.0
05/07:30am 22.5 23.3 19.1 81 2.2 SE 13 19 7 10 1014.7 1014.6 0.0
05/07:00am 22.3 23.1 19.1 82 2.0 SE 13 22 7 12 1014.3 1014.2 0.0
05/06:30am 22.3 23.5 19.1 82 2.0 ESE 11 19 6 10 1014.3 1014.2 0.0
05/06:00am 22.2 23.7 19.0 82 2.0 SE 9 17 5 9 1014.2 1014.1 0.0
05/05:30am 22.2 23.3 18.8 81 2.1 SE 11 17 6 9 1013.9 1013.8 0.0
05/05:00am 22.4 22.6 18.6 79 2.4 SE 15 24 8 13 1013.7 1013.6 0.0
05/04:30am 22.6 22.7 18.4 77 2.6 SE 15 22 8 12 1013.6 1013.5 0.0
05/04:00am 22.5 22.6 18.3 77 2.6 SE 15 24 8 13 1013.5 1013.4 0.0
05/03:30am 22.9 22.7 18.4 76 2.8 SE 17 26 9 14 1013.5 1013.4 0.0
05/03:00am 23.1 22.9 18.6 76 2.8 SE 17 24 9 13 1013.7 1013.6 0.0
05/02:30am 23.3 23.3 19.0 77 2.7 ESE 17 28 9 15 1014.1 1014.0 0.0
05/02:00am 24.4 23.6 19.2 73 3.3 E 22 32 12 17 1014.0 1013.9 0.0
05/01:30am 24.7 24.7 19.8 74 3.2 E 19 24 10 13 1014.0 1013.9 0.0
05/01:00am 24.6 26.1 20.5 78 2.7 E 13 20 7 11 1014.1 1014.0 0.0
05/12:30am 24.5 26.0 20.6 79 2.5 E 13 20 7 11 1014.1 1014.0 0.0
05/12:00am 24.4 26.8 20.9 81 2.3 ENE 9 17 5 9 1014.0 1013.9 0.0
 
Date/Time
CST
Temp
°C
App
Temp
°C
Dew
Point
Rel
Hum
%
Delta-T
°C
Wind Press
QNH
hPa
Press
MSL
hPa
Rain
since 9 am
mm
Dir
 
Spd
km/h
Gust
km/h
Spd
kts
Gust
kts
04/11:30pm 22.8 25.8 20.1 85 1.7 ENE 4 6 2 3 1014.0 1013.9 0.0
04/11:00pm 21.6 24.6 18.4 82 2.0 CALM 0 0 0 0 1013.9 1013.8 0.0
04/10:30pm 21.5 24.4 18.3 82 2.0 CALM 0 4 0 2 1014.0 1013.9 0.0
04/10:00pm 21.6 24.1 18.2 81 2.1 ENE 2 4 1 2 1014.0 1013.9 0.0
04/09:30pm 21.7 24.4 17.7 78 2.5 CALM 0 0 0 0 1013.9 1013.8 0.0
04/09:00pm 22.0 24.6 17.6 76 2.7 CALM 0 2 0 1 1013.6 1013.5 0.0
04/08:30pm 22.2 24.3 17.1 73 3.1 E 2 4 1 2 1013.4 1013.3 0.0
04/08:00pm 23.2 25.2 17.0 68 3.8 ENE 2 4 1 2 1013.1 1013.0 0.0
04/07:30pm 24.1 25.3 16.9 64 4.4 ENE 6 7 3 4 1012.7 1012.6 0.0
04/07:00pm 24.6 25.7 16.6 61 4.9 ENE 6 11 3 6 1012.5 1012.4 0.0
04/06:30pm 25.1 25.4 16.0 57 5.6 ENE 9 17 5 9 1012.4 1012.3 0.0
04/06:00pm 25.6 25.0 15.6 54 6.1 ENE 13 20 7 11 1012.0 1011.9 0.0
04/05:30pm 26.5 25.8 15.5 50 6.7 E 13 22 7 12 1011.7 1011.6 0.0
04/05:00pm 27.1 25.5 15.1 47 7.3 E 17 24 9 13 1011.6 1011.5 0.0
04/04:30pm 27.8 27.3 15.8 48 7.4 E 13 24 7 13 1011.6 1011.5 0.0
04/04:00pm 28.3 26.5 13.4 40 8.8 E 15 19 8 10 1011.5 1011.4 0.0
04/03:30pm 28.4 26.7 13.5 40 8.9 E 15 20 8 11 1011.5 1011.4 0.0
04/03:00pm 27.9 26.4 14.2 43 8.2 E 15 20 8 11 1011.6 1011.5 0.0
04/02:30pm 27.8 25.7 14.8 45 7.9 E 19 24 10 13 1012.0 1011.9 0.0
04/02:00pm 28.1 26.2 14.3 42 8.3 E 17 24 9 13 1012.4 1012.3 0.0
04/01:30pm 28.0 24.4 12.0 37 9.3 ESE 22 32 12 17 1012.9 1012.8 0.0
04/01:00pm 28.3 24.9 12.6 38 9.2 ESE 22 33 12 18 1013.5 1013.4 0.0
04/12:30pm 27.7 24.2 12.1 38 9.0 ESE 22 32 12 17 1013.9 1013.8 0.0
04/12:00pm 27.2 23.2 11.7 38 8.9 ESE 24 33 13 18 1014.4 1014.3 0.0
04/11:30am 27.2 23.3 12.0 38 8.8 ESE 24 35 13 19 1014.8 1014.7 0.0
04/11:00am 26.6 23.7 14.0 46 7.5 ESE 22 32 12 17 1015.3 1015.2 0.0
04/10:30am 25.6 23.2 14.4 50 6.7 ESE 20 33 11 18 1015.7 1015.6 0.0
04/10:00am 25.2 23.5 15.8 56 5.7 ESE 19 26 10 14 1015.9 1015.8 0.0
04/09:30am 24.5 23.2 16.7 61 4.8 ESE 19 24 10 13 1016.1 1016.0 0.0
04/09:00am 23.4 21.9 16.7 66 4.1 SE 20 28 11 15 1016.2 1016.1 0.0
04/08:30am 22.8 21.4 16.6 68 3.8 SE 19 26 10 14 1016.1 1016.0 0.0
04/08:00am 22.3 21.4 16.8 71 3.4 SE 17 24 9 13 1015.8 1015.7 0.0
04/07:30am 21.6 20.3 15.9 70 3.4 SE 17 20 9 11 1015.5 1015.4 0.0
04/07:00am 21.4 20.5 16.8 75 2.8 SE 17 24 9 13 1015.1 1015.0 0.0
04/06:30am 21.3 21.1 16.7 75 2.8 SE 13 20 7 11 1015.0 1014.9 0.0
04/06:00am 21.3 20.9 17.1 77 2.6 SE 15 20 8 11 1015.0 1014.9 0.0
04/05:30am 21.5 21.0 17.7 79 2.3 SE 17 24 9 13 1014.9 1014.8 0.0
04/05:00am 21.6 20.6 17.6 78 2.5 SE 19 26 10 14 1014.6 1014.5 0.0
04/04:30am 21.8 21.7 17.8 78 2.5 SE 15 20 8 11 1014.6 1014.5 0.0
04/04:00am 21.6 21.1 17.8 79 2.4 ESE 17 26 9 14 1014.6 1014.5 0.0
04/03:30am 21.9 21.4 17.7 77 2.6 ESE 17 24 9 13 1014.6 1014.5 0.0
04/03:00am 22.2 21.5 17.3 74 3.0 ESE 17 24 9 13 1014.7 1014.6 0.0
04/02:30am 22.4 22.2 17.5 74 3.0 ESE 15 22 8 12 1014.8 1014.7 0.0
04/02:00am 22.6 22.0 17.5 73 3.2 ESE 17 24 9 13 1015.0 1014.9 0.0
04/01:30am 23.0 22.2 17.9 73 3.2 ESE 19 32 10 17 1015.0 1014.9 0.0
04/01:00am 23.3 22.2 17.7 71 3.5 ESE 20 32 11 17 1015.1 1015.0 0.0
04/12:30am 23.7 22.7 17.9 70 3.6 ESE 20 32 11 17 1015.0 1014.9 0.0
04/12:00am 24.3 22.2 18.0 68 4.0 ESE 26 33 14 18 1015.1 1015.0 0.0
 
Date/Time
CST
Temp
°C
App
Temp
°C
Dew
Point
Rel
Hum
%
Delta-T
°C
Wind Press
QNH
hPa
Press
MSL
hPa
Rain
since 9 am
mm
Dir
 
Spd
km/h
Gust
km/h
Spd
kts
Gust
kts
03/11:30pm 24.9 22.3 17.9 65 4.4 ESE 28 35 15 19 1015.0 1014.9 0.0
03/11:00pm 25.0 26.6 21.5 81 2.3 E 15 22 8 12 1014.9 1014.8 0.0

Other Formats:

Comma delimited format used in spreadsheet applications
http://www.bom.gov.au/fwo/IDD60801/IDD60801.94139.axf

JavaScript Object Notation format (JSON) in row-major order
http://www.bom.gov.au/fwo/IDD60801/IDD60801.94139.json